Concrete, Texas
Current Conditions -  °F | °C
As of 9:51 AM on Thursday 23 Oct 2014 (Local Time) from KVCT Reporting Station
Clear Clear  
Wind Chill: 68°   Ceiling: Unl
Heat Index: 68°   Visibility: 9mi
Dew Point: 62°   Wind: 5mph
Humidity: 81%   Direction: 20°NNE
Pressure: 30.14"   Gusts: NA
Location:  29.0941°N, 97.191°W
Report Text: KVCT 231451Z 02004KT 9SM CLR 20/17 A3014 RMK AO2 SLP203 T02000167 53017
Loading
Personal Weather Stations






























Interactive Weather Map
Tropical Storm Tracking
New forecast layout! Learn more

10-Day Weather Forecast

Advertisements
Track Severe Weather on mobile